createdAt,value
2023-08-07T00:02:27.404Z,99452.33
2023-08-07T00:04:54.702Z,99452.56
2023-08-07T00:07:21.870Z,99449.58
2023-08-07T00:09:49.329Z,99446.05
2023-08-07T00:12:17.201Z,99447.78
2023-08-07T00:14:49.173Z,99447.33
2023-08-07T00:17:16.529Z,99458.50
2023-08-07T00:19:47.682Z,99454.36
2023-08-07T00:22:14.741Z,99452.23
2023-08-07T00:24:41.883Z,99454.17
2023-08-07T00:27:11.389Z,99452.45
2023-08-07T00:29:38.644Z,99450.31
2023-08-07T00:32:06.552Z,99455.55
2023-08-07T00:34:33.670Z,99451.43
2023-08-07T00:37:00.732Z,99450.97
2023-08-07T00:39:28.703Z,99445.66
2023-08-07T00:41:55.957Z,99425.98
2023-08-07T00:44:24.751Z,99409.14
2023-08-07T00:46:52.329Z,99401.60
2023-08-07T00:49:21.319Z,99401.35
2023-08-07T00:51:49.189Z,99420.16
2023-08-07T00:54:19.949Z,99429.54
2023-08-07T00:56:47.581Z,99413.98
2023-08-07T00:59:16.613Z,99421.55
2023-08-07T01:01:43.744Z,99409.27
2023-08-07T01:04:10.994Z,99400.16
2023-08-07T01:06:38.056Z,99408.20
2023-08-07T01:09:05.506Z,99410.02
2023-08-07T01:11:49.963Z,99403.57
2023-08-07T01:14:35.841Z,99402.17
2023-08-07T01:17:06.650Z,99414.44
2023-08-07T01:19:36.089Z,99425.22
2023-08-07T01:22:07.441Z,99426.98
2023-08-07T01:24:39.816Z,99431.18
2023-08-07T01:27:18.911Z,99430.95
2023-08-07T01:30:08.133Z,99424.23
2023-08-07T01:33:13.017Z,99431.04
2023-08-07T01:35:47.746Z,99428.20
2023-08-07T01:38:16.032Z,99431.02
2023-08-07T01:40:44.234Z,99443.51
2023-08-07T01:43:11.371Z,99451.52
2023-08-07T01:45:38.871Z,99450.19
2023-08-07T01:48:05.861Z,99447.21
2023-08-07T01:50:33.155Z,99446.51
2023-08-07T01:53:00.191Z,99439.77
2023-08-07T01:55:27.449Z,99431.89
2023-08-07T01:57:54.544Z,99427.23
2023-08-07T02:00:22.687Z,99424.95
2023-08-07T02:02:50.146Z,99414.81
2023-08-07T02:05:17.723Z,99412.71
2023-08-07T02:07:45.516Z,99413.66
2023-08-07T02:10:12.951Z,99416.52
2023-08-07T02:12:40.015Z,99429.02
2023-08-07T02:15:08.014Z,99439.34
2023-08-07T02:17:35.282Z,99444.07
2023-08-07T02:20:02.239Z,99445.45
2023-08-07T02:22:29.337Z,99445.23
2023-08-07T02:24:56.385Z,99448.05
2023-08-07T02:27:23.278Z,99456.08
2023-08-07T02:29:52.343Z,99467.48
2023-08-07T02:32:19.244Z,99468.17
2023-08-07T02:34:46.954Z,99461.94
2023-08-07T02:37:14.423Z,99460.02
2023-08-07T02:39:42.597Z,99463.75
2023-08-07T02:42:10.263Z,99457.84
2023-08-07T02:44:37.216Z,99429.24
2023-08-07T02:47:04.786Z,99392.48
2023-08-07T02:49:31.888Z,99370.02
2023-08-07T02:51:59.103Z,99356.48
2023-08-07T02:54:25.989Z,99373.40
2023-08-07T02:56:53.396Z,99361.55
2023-08-07T02:59:20.762Z,99339.14
2023-08-07T03:01:47.862Z,99340.63
2023-08-07T03:04:15.038Z,99338.86
2023-08-07T03:06:42.173Z,99341.17
2023-08-07T03:09:09.239Z,99343.39
2023-08-07T03:11:36.448Z,99339.25
2023-08-07T03:14:04.848Z,99339.87
2023-08-07T03:16:31.974Z,99326.41
2023-08-07T03:18:59.031Z,99324.02
2023-08-07T03:21:26.490Z,99345.30
2023-08-07T03:23:53.496Z,99380.22
2023-08-07T03:26:20.707Z,99399.92
2023-08-07T03:28:50.133Z,99412.95
2023-08-07T03:31:18.215Z,99423.87
2023-08-07T03:33:46.469Z,99427.33
2023-08-07T03:36:17.853Z,99422.23
2023-08-07T03:38:44.723Z,99421.16
2023-08-07T03:41:11.715Z,99423.84
2023-08-07T03:43:39.794Z,99432.64
2023-08-07T03:46:06.853Z,99439.20
2023-08-07T03:48:34.285Z,99439.11
2023-08-07T03:51:16.214Z,99441.09
2023-08-07T03:53:47.248Z,99440.89
2023-08-07T03:56:15.060Z,99429.46
2023-08-07T03:58:43.099Z,99431.55
2023-08-07T04:01:11.729Z,99438.73
2023-08-07T04:03:39.955Z,99448.31
2023-08-07T04:06:07.197Z,99451.18
2023-08-07T04:08:34.385Z,99455.78
2023-08-07T04:11:08.427Z,99465.03
2023-08-07T04:13:35.956Z,99467.73
2023-08-07T04:16:05.899Z,99469.90
2023-08-07T04:18:35.048Z,99482.00
2023-08-07T04:21:03.877Z,99487.48
2023-08-07T04:23:32.921Z,99478.44
2023-08-07T04:26:01.220Z,99468.38
2023-08-07T04:28:31.695Z,99466.39
2023-08-07T04:30:59.016Z,99467.25
2023-08-07T04:33:26.193Z,99458.06
2023-08-07T04:35:53.211Z,99456.78
2023-08-07T04:38:20.961Z,99453.31
2023-08-07T04:40:49.112Z,99451.23
2023-08-07T04:43:17.579Z,99452.92
2023-08-07T04:45:46.939Z,99449.46
2023-08-07T04:48:14.955Z,99456.25
2023-08-07T04:50:42.484Z,99456.02
2023-08-07T04:53:09.588Z,99447.16
2023-08-07T04:55:36.638Z,99436.85
2023-08-07T04:58:03.795Z,99425.88
2023-08-07T05:00:30.940Z,99408.06
2023-08-07T05:02:58.078Z,99401.67
2023-08-07T05:05:25.292Z,99402.73
2023-08-07T05:07:52.543Z,99412.36
2023-08-07T05:10:19.728Z,99419.49
2023-08-07T05:12:46.766Z,99426.23
2023-08-07T05:15:13.876Z,99426.54
2023-08-07T05:17:41.572Z,99429.59
2023-08-07T05:20:10.209Z,99429.81
2023-08-07T05:22:38.996Z,99442.79
2023-08-07T05:25:06.203Z,99460.80
2023-08-07T05:27:33.259Z,99458.11
2023-08-07T05:30:01.009Z,99447.48
2023-08-07T05:32:29.581Z,99446.70
2023-08-07T05:34:57.059Z,99449.18
2023-08-07T05:37:24.056Z,99459.95
2023-08-07T05:39:51.283Z,99466.86
2023-08-07T05:42:18.236Z,99469.65
2023-08-07T05:44:45.398Z,99471.13
2023-08-07T05:47:12.435Z,99471.02
2023-08-07T05:49:39.491Z,99465.47
2023-08-07T05:52:07.619Z,99469.98
2023-08-07T05:54:34.818Z,99478.39
2023-08-07T05:57:02.279Z,99473.39
2023-08-07T05:59:30.172Z,99469.08
2023-08-07T06:01:59.812Z,99467.27
2023-08-07T06:04:27.229Z,99457.59
2023-08-07T06:06:54.275Z,99457.05
2023-08-07T06:09:22.976Z,99467.40
2023-08-07T06:11:50.056Z,99471.23
2023-08-07T06:14:17.754Z,99466.39
2023-08-07T06:16:44.998Z,99459.70
2023-08-07T06:19:25.253Z,99452.96
2023-08-07T06:21:58.488Z,99463.80
2023-08-07T06:24:27.244Z,99469.85
2023-08-07T06:26:54.543Z,99471.04
2023-08-07T06:29:21.501Z,99481.32
2023-08-07T06:31:48.913Z,99481.66
2023-08-07T06:34:16.130Z,99481.86
2023-08-07T06:36:43.268Z,99486.59
2023-08-07T06:39:10.331Z,99495.59
2023-08-07T06:41:40.140Z,99499.03
2023-08-07T06:44:07.873Z,99497.73
2023-08-07T06:46:35.066Z,99510.17
2023-08-07T06:49:02.547Z,99512.89
2023-08-07T06:51:29.685Z,99509.03
2023-08-07T06:53:56.746Z,99518.02
2023-08-07T06:56:23.996Z,99527.88
2023-08-07T06:58:51.354Z,99535.35
2023-08-07T07:01:18.367Z,99533.80
2023-08-07T07:03:48.426Z,99543.08
2023-08-07T07:06:15.632Z,99557.77
2023-08-07T07:08:42.792Z,99558.36
2023-08-07T07:11:09.838Z,99573.83
2023-08-07T07:13:37.307Z,99577.16
2023-08-07T07:16:04.882Z,99575.52
2023-08-07T07:18:31.911Z,99567.98
2023-08-07T07:21:02.932Z,99561.67
2023-08-07T07:23:30.188Z,99557.41
2023-08-07T07:25:58.794Z,99549.85
2023-08-07T07:28:25.917Z,99548.05
2023-08-07T07:30:52.969Z,99546.08
2023-08-07T07:33:20.128Z,99541.15
2023-08-07T07:35:47.334Z,99542.10
2023-08-07T07:38:15.200Z,99539.41
2023-08-07T07:40:42.972Z,99536.16
2023-08-07T07:43:10.081Z,99536.50
2023-08-07T07:45:37.331Z,99530.30
2023-08-07T07:48:05.648Z,99534.67
2023-08-07T07:50:32.840Z,99533.38
2023-08-07T07:52:59.885Z,99532.39
2023-08-07T07:55:27.601Z,99534.26
2023-08-07T07:57:56.660Z,99539.10
2023-08-07T08:00:28.078Z,99547.04
2023-08-07T08:02:55.556Z,99548.14
2023-08-07T08:05:23.214Z,99547.22
2023-08-07T08:07:50.234Z,99545.65
2023-08-07T08:10:17.865Z,99548.66
2023-08-07T08:12:45.019Z,99555.73
2023-08-07T08:15:12.215Z,99554.94
2023-08-07T08:17:40.387Z,99564.36
2023-08-07T08:20:09.078Z,99584.22
2023-08-07T08:22:36.532Z,99597.55
2023-08-07T08:25:06.026Z,99605.11
2023-08-07T08:27:33.116Z,99610.98
2023-08-07T08:30:00.428Z,99609.81
2023-08-07T08:32:27.883Z,99602.91
2023-08-07T08:34:54.995Z,99593.70
2023-08-07T08:37:22.135Z,99596.85
2023-08-07T08:39:49.653Z,99598.66
2023-08-07T08:42:18.913Z,99598.64
2023-08-07T08:45:05.832Z,99601.47
2023-08-07T08:47:38.213Z,99603.83
2023-08-07T08:50:11.170Z,99614.13
2023-08-07T08:52:39.978Z,99613.09
2023-08-07T08:55:08.037Z,99605.41
2023-08-07T08:57:36.840Z,99596.61
2023-08-07T09:00:18.991Z,99586.70
2023-08-07T09:02:48.104Z,99585.58
2023-08-07T09:05:21.208Z,99594.05
2023-08-07T09:07:50.026Z,99603.83
2023-08-07T09:10:18.604Z,99611.64
2023-08-07T09:12:55.802Z,99618.36
2023-08-07T09:15:24.834Z,99624.08
2023-08-07T09:17:53.915Z,99628.88
2023-08-07T09:20:21.283Z,99631.93
2023-08-07T09:22:48.249Z,99636.73
2023-08-07T09:25:16.142Z,99639.38
2023-08-07T09:27:43.485Z,99631.13
2023-08-07T09:30:11.607Z,99628.30
2023-08-07T09:32:40.344Z,99627.31
2023-08-07T09:35:09.927Z,99627.77
2023-08-07T09:37:38.437Z,99623.09
2023-08-07T09:40:06.333Z,99613.67
2023-08-07T09:42:36.602Z,99614.86
2023-08-07T09:45:04.262Z,99611.81
2023-08-07T09:47:31.462Z,99619.89
2023-08-07T09:49:58.474Z,99629.03
2023-08-07T09:52:26.547Z,99638.34
2023-08-07T09:54:57.814Z,99643.95
2023-08-07T09:57:25.055Z,99645.48
2023-08-07T09:59:52.621Z,99648.41
2023-08-07T10:02:22.277Z,99650.92
2023-08-07T10:04:51.862Z,99660.36
2023-08-07T10:07:19.319Z,99665.52
2023-08-07T10:09:48.035Z,99670.66
2023-08-07T10:12:17.340Z,99676.16
2023-08-07T10:14:46.028Z,99689.48
2023-08-07T10:17:13.287Z,99694.09
2023-08-07T10:19:40.563Z,99700.39
2023-08-07T10:22:08.017Z,99701.90
2023-08-07T10:24:38.143Z,99697.27
2023-08-07T10:27:06.760Z,99679.29
2023-08-07T10:29:35.211Z,99663.19
2023-08-07T10:32:04.091Z,99656.10
2023-08-07T10:34:34.497Z,99646.39
2023-08-07T10:37:01.490Z,99633.32
2023-08-07T10:39:28.503Z,99616.38
2023-08-07T10:41:56.583Z,99614.98
2023-08-07T10:44:32.436Z,99628.88
2023-08-07T10:47:00.124Z,99635.05
2023-08-07T10:49:36.567Z,99633.33
2023-08-07T10:52:05.512Z,99643.87
2023-08-07T10:54:44.126Z,99653.90
2023-08-07T10:57:13.996Z,99662.61
2023-08-07T11:00:09.799Z,99667.25
2023-08-07T11:02:40.915Z,99667.09
2023-08-07T11:05:08.541Z,99663.16
2023-08-07T11:07:35.679Z,99650.73
2023-08-07T11:10:02.727Z,99647.55
2023-08-07T11:12:37.650Z,99643.57
2023-08-07T11:15:05.248Z,99635.73
2023-08-07T11:17:32.421Z,99634.97
2023-08-07T11:20:00.257Z,99639.69
2023-08-07T11:22:27.354Z,99635.23
2023-08-07T11:24:54.773Z,99617.20
2023-08-07T11:27:24.684Z,99600.95
2023-08-07T11:29:51.942Z,99594.38
2023-08-07T11:32:22.239Z,99590.23
2023-08-07T11:34:52.099Z,99594.64
2023-08-07T11:37:19.344Z,99626.44
2023-08-07T11:39:46.303Z,99660.64
2023-08-07T11:42:15.054Z,99677.60
2023-08-07T11:44:43.163Z,99690.95
2023-08-07T11:47:11.465Z,99711.32
2023-08-07T11:49:39.385Z,99707.14
2023-08-07T11:52:07.257Z,99694.90
2023-08-07T11:54:34.598Z,99668.86
2023-08-07T11:57:01.707Z,99654.36
2023-08-07T11:59:28.774Z,99668.38
2023-08-07T12:01:56.427Z,99686.05
2023-08-07T12:04:23.798Z,99687.68
2023-08-07T12:06:56.671Z,99682.70
2023-08-07T12:09:24.386Z,99684.44
2023-08-07T12:11:51.336Z,99690.14
2023-08-07T12:14:18.810Z,99687.33
2023-08-07T12:16:49.281Z,99688.07
2023-08-07T12:19:17.769Z,99689.89
2023-08-07T12:21:45.340Z,99694.54
2023-08-07T12:24:14.586Z,99693.61
2023-08-07T12:26:41.697Z,99692.06
2023-08-07T12:29:08.653Z,99676.55
2023-08-07T12:31:38.819Z,99678.19
2023-08-07T12:36:37.098Z,99688.32
2023-08-07T12:39:04.326Z,99685.08
2023-08-07T12:44:02.746Z,99673.46
2023-08-07T12:46:32.316Z,99681.14
2023-08-07T12:48:59.803Z,99695.78
2023-08-07T12:51:26.962Z,99701.63
2023-08-07T12:53:54.837Z,99708.50
2023-08-07T12:56:21.824Z,99717.61
2023-08-07T12:58:48.841Z,99723.70
2023-08-07T13:01:15.872Z,99723.27
2023-08-07T13:03:43.341Z,99728.77
2023-08-07T13:06:13.053Z,99730.95
2023-08-07T13:08:40.841Z,99728.26
2023-08-07T13:11:07.901Z,99728.30
2023-08-07T13:13:34.843Z,99735.20
2023-08-07T13:16:01.895Z,99718.85
2023-08-07T13:18:28.962Z,99721.59
2023-08-07T13:20:56.010Z,99726.19
2023-08-07T13:23:22.956Z,99731.50
2023-08-07T13:25:49.906Z,99728.55
2023-08-07T13:28:18.090Z,99729.09
2023-08-07T13:30:45.173Z,99731.89
2023-08-07T13:33:12.200Z,99731.02
2023-08-07T13:35:39.256Z,99719.95
2023-08-07T13:38:06.668Z,99716.13
2023-08-07T13:40:33.899Z,99711.11
2023-08-07T13:43:04.305Z,99706.48
2023-08-07T13:45:31.294Z,99706.41
2023-08-07T13:47:58.276Z,99701.76
2023-08-07T13:50:25.581Z,99692.53
2023-08-07T13:53:03.902Z,99683.77
2023-08-07T13:55:39.627Z,99665.00
2023-08-07T13:58:06.777Z,99659.58
2023-08-07T14:00:35.970Z,99655.31
2023-08-07T14:03:03.118Z,99646.77
2023-08-07T14:05:30.290Z,99660.06
2023-08-07T14:07:58.973Z,99678.92
2023-08-07T14:10:26.029Z,99708.02
2023-08-07T14:12:53.015Z,99711.90
2023-08-07T14:15:20.342Z,99707.64
2023-08-07T14:17:47.578Z,99699.05
2023-08-07T14:20:14.768Z,99709.06
2023-08-07T14:22:42.624Z,99719.74
2023-08-07T14:25:10.320Z,99725.95
2023-08-07T14:27:37.344Z,99735.43
2023-08-07T14:30:06.680Z,99742.56
2023-08-07T14:32:33.750Z,99751.14
2023-08-07T14:35:01.065Z,99756.62
2023-08-07T14:37:28.140Z,99759.13
2023-08-07T14:39:55.060Z,99755.67
2023-08-07T14:42:22.121Z,99758.45
2023-08-07T14:44:49.268Z,99753.87
2023-08-07T14:47:16.383Z,99758.64
2023-08-07T14:49:43.943Z,99752.63
2023-08-07T14:52:12.146Z,99751.06
2023-08-07T14:54:39.223Z,99759.79
2023-08-07T14:57:06.222Z,99747.23
2023-08-07T14:59:33.428Z,99741.36
2023-08-07T15:02:01.179Z,99743.20
2023-08-07T15:04:28.618Z,99730.80
2023-08-07T15:06:55.826Z,99727.42
2023-08-07T15:09:23.095Z,99735.46
2023-08-07T15:11:51.388Z,99731.66
2023-08-07T15:14:18.632Z,99728.05
2023-08-07T15:16:45.872Z,99723.20
2023-08-07T15:19:13.442Z,99714.96
2023-08-07T15:21:40.400Z,99719.29
2023-08-07T15:24:07.453Z,99729.89
2023-08-07T15:26:34.556Z,99726.67
2023-08-07T15:29:01.763Z,99712.20
2023-08-07T15:31:28.821Z,99705.37
2023-08-07T15:33:57.517Z,99700.67
2023-08-07T15:36:24.562Z,99699.35
2023-08-07T15:38:52.430Z,99705.25
2023-08-07T15:41:19.585Z,99713.58
2023-08-07T15:43:46.539Z,99711.74
2023-08-07T15:46:13.690Z,99699.83
2023-08-07T15:48:40.877Z,99695.94
2023-08-07T15:51:08.108Z,99695.39
2023-08-07T15:53:35.169Z,99686.52
2023-08-07T15:56:02.319Z,99695.50
2023-08-07T15:58:29.789Z,99707.91
2023-08-07T16:00:56.832Z,99700.44
2023-08-07T16:03:23.932Z,99701.33
2023-08-07T16:05:51.038Z,99703.57
2023-08-07T16:08:18.202Z,99703.33
2023-08-07T16:10:45.288Z,99700.89
2023-08-07T16:13:12.340Z,99702.52
2023-08-07T16:15:39.543Z,99703.02
2023-08-07T16:18:06.714Z,99711.52
2023-08-07T16:20:33.718Z,99711.52
2023-08-07T16:23:00.776Z,99706.33
2023-08-07T16:25:29.008Z,99708.61
2023-08-07T16:27:56.051Z,99708.80
2023-08-07T16:30:23.104Z,99712.70
2023-08-07T16:32:50.136Z,99728.25
2023-08-07T16:35:19.275Z,99743.56
2023-08-07T16:37:46.308Z,99751.36
2023-08-07T16:40:13.573Z,99747.13
2023-08-07T16:42:40.938Z,99737.62
2023-08-07T16:45:08.553Z,99730.77
2023-08-07T16:47:35.665Z,99728.81
2023-08-07T16:50:02.806Z,99719.41
2023-08-07T16:52:29.819Z,99706.70
2023-08-07T16:54:56.922Z,99706.75
2023-08-07T16:57:24.118Z,99705.46
2023-08-07T16:59:51.567Z,99700.07
2023-08-07T17:02:18.742Z,99699.09
2023-08-07T17:04:45.841Z,99698.35
2023-08-07T17:07:12.910Z,99701.59
2023-08-07T17:09:40.361Z,99698.19
2023-08-07T17:12:07.966Z,99697.15
2023-08-07T17:14:35.092Z,99692.48
2023-08-07T17:17:02.132Z,99683.48
2023-08-07T17:19:29.086Z,99674.56
2023-08-07T17:21:57.668Z,99662.02
2023-08-07T17:24:24.724Z,99658.58
2023-08-07T17:26:51.675Z,99658.98
2023-08-07T17:29:18.725Z,99659.42
2023-08-07T17:31:45.674Z,99669.48
2023-08-07T17:34:13.035Z,99660.38
2023-08-07T17:36:40.391Z,99647.83
2023-08-07T17:39:07.567Z,99645.61
2023-08-07T17:41:34.448Z,99643.19
2023-08-07T17:44:01.453Z,99654.67
2023-08-07T17:46:28.657Z,99657.70
2023-08-07T17:48:55.973Z,99657.48
2023-08-07T17:51:23.025Z,99667.77
2023-08-07T17:53:50.082Z,99680.85
2023-08-07T17:56:17.245Z,99685.50
2023-08-07T17:58:44.244Z,99686.94
2023-08-07T18:01:11.284Z,99686.55
2023-08-07T18:03:38.410Z,99680.55
2023-08-07T18:06:05.566Z,99690.11
2023-08-07T18:08:32.616Z,99705.52
2023-08-07T18:10:59.660Z,99703.61
2023-08-07T18:13:26.713Z,99708.38
2023-08-07T18:15:53.769Z,99720.55
2023-08-07T18:18:20.931Z,99723.80
2023-08-07T18:20:48.309Z,99723.84
2023-08-07T18:23:15.489Z,99718.45
2023-08-07T18:25:42.651Z,99715.50
2023-08-07T18:28:10.089Z,99706.39
2023-08-07T18:30:37.272Z,99700.70
2023-08-07T18:33:04.695Z,99691.55
2023-08-07T18:35:31.834Z,99690.98
2023-08-07T18:37:58.919Z,99689.36
2023-08-07T18:40:26.154Z,99694.56
2023-08-07T18:42:53.303Z,99700.21
2023-08-07T18:45:20.352Z,99693.98
2023-08-07T18:47:47.530Z,99691.93
2023-08-07T18:50:14.663Z,99681.17
2023-08-07T18:52:41.670Z,99676.14
2023-08-07T18:55:09.250Z,99683.89
2023-08-07T18:57:37.464Z,99680.41
2023-08-07T19:00:07.192Z,99674.66
2023-08-07T19:02:34.465Z,99674.61
2023-08-07T19:05:01.591Z,99663.05
2023-08-07T19:07:28.638Z,99654.67
2023-08-07T19:09:57.867Z,99661.60
2023-08-07T19:12:25.003Z,99662.29
2023-08-07T19:14:52.052Z,99660.80
2023-08-07T19:17:19.104Z,99666.33
2023-08-07T19:19:46.162Z,99663.12
2023-08-07T19:22:13.205Z,99661.20
2023-08-07T19:24:41.233Z,99657.34
2023-08-07T19:27:08.237Z,99651.93
2023-08-07T19:29:35.393Z,99657.16
2023-08-07T19:32:02.381Z,99651.67
2023-08-07T19:34:29.504Z,99654.21
2023-08-07T19:36:56.672Z,99653.85
2023-08-07T19:39:24.940Z,99645.31
2023-08-07T19:41:52.079Z,99641.47
2023-08-07T19:44:19.072Z,99640.16
2023-08-07T19:46:46.405Z,99629.77
2023-08-07T19:49:13.558Z,99631.28
2023-08-07T19:51:40.713Z,99629.67
2023-08-07T19:54:07.758Z,99627.32
2023-08-07T19:56:36.770Z,99625.44
2023-08-07T19:59:05.604Z,99623.11
2023-08-07T20:01:33.700Z,99620.39
2023-08-07T20:04:01.276Z,99620.73
2023-08-07T20:06:35.912Z,99611.42
2023-08-07T20:09:03.650Z,99615.09
2023-08-07T20:11:37.496Z,99614.77
2023-08-07T20:14:05.197Z,99610.84
2023-08-07T20:16:33.456Z,99614.47
2023-08-07T20:19:00.986Z,99618.20
2023-08-07T20:21:28.373Z,99607.71
2023-08-07T20:23:55.535Z,99595.61
2023-08-07T20:26:22.944Z,99591.45
2023-08-07T20:28:50.249Z,99591.88
2023-08-07T20:31:17.850Z,99593.67
2023-08-07T20:33:45.019Z,99591.80
2023-08-07T20:36:12.023Z,99593.59
2023-08-07T20:38:38.988Z,99587.52
2023-08-07T20:41:06.084Z,99595.45
2023-08-07T20:43:33.625Z,99596.29
2023-08-07T20:46:00.650Z,99604.08
2023-08-07T20:48:28.216Z,99592.30
2023-08-07T20:50:55.379Z,99584.23
2023-08-07T20:53:23.400Z,99579.52
2023-08-07T20:55:50.389Z,99568.79
2023-08-07T20:58:17.450Z,99564.64
2023-08-07T21:00:44.629Z,99569.34
2023-08-07T21:03:11.663Z,99568.23
2023-08-07T21:05:38.708Z,99571.70
2023-08-07T21:08:06.070Z,99563.09
2023-08-07T21:10:33.326Z,99557.06
2023-08-07T21:13:00.383Z,99557.96
2023-08-07T21:15:27.430Z,99551.38
2023-08-07T21:17:54.526Z,99553.70
2023-08-07T21:20:21.671Z,99541.24
2023-08-07T21:22:48.808Z,99526.40
2023-08-07T21:25:15.857Z,99528.25
2023-08-07T21:27:44.030Z,99527.55
2023-08-07T21:30:12.846Z,99529.48
2023-08-07T21:32:45.092Z,99527.73
2023-08-07T21:35:13.420Z,99525.24
2023-08-07T21:37:41.700Z,99527.98
2023-08-07T21:40:10.280Z,99532.02
2023-08-07T21:42:38.533Z,99527.95
2023-08-07T21:45:07.027Z,99524.17
2023-08-07T21:47:34.086Z,99525.38
2023-08-07T21:50:01.123Z,99530.70
2023-08-07T21:52:28.277Z,99528.34
2023-08-07T21:54:55.634Z,99526.66
2023-08-07T21:57:25.673Z,99529.91
2023-08-07T21:59:52.520Z,99525.04
2023-08-07T22:02:19.564Z,99526.38
2023-08-07T22:04:46.664Z,99522.65
2023-08-07T22:07:13.780Z,99523.36
2023-08-07T22:09:40.828Z,99527.17
2023-08-07T22:12:08.399Z,99521.64
2023-08-07T22:14:36.268Z,99526.97
2023-08-07T22:17:03.932Z,99516.70
2023-08-07T22:19:30.988Z,99512.61
2023-08-07T22:21:58.206Z,99513.91
2023-08-07T22:24:25.495Z,99521.02
2023-08-07T22:26:52.548Z,99509.07
2023-08-07T22:29:19.536Z,99517.32
2023-08-07T22:31:46.574Z,99510.55
2023-08-07T22:34:13.626Z,99504.30
2023-08-07T22:36:41.020Z,99498.23
2023-08-07T22:39:08.131Z,99492.66
2023-08-07T22:41:35.283Z,99487.38
2023-08-07T22:44:02.477Z,99487.98
2023-08-07T22:46:29.623Z,99481.80
2023-08-07T22:48:56.848Z,99487.96
2023-08-07T22:51:24.956Z,99493.56
2023-08-07T22:53:52.042Z,99490.03
2023-08-07T22:56:19.134Z,99488.36
2023-08-07T22:58:46.225Z,99484.82
2023-08-07T23:01:13.679Z,99472.51
2023-08-07T23:03:42.881Z,99473.13
2023-08-07T23:06:11.640Z,99473.98
2023-08-07T23:08:38.697Z,99476.83
2023-08-07T23:11:05.877Z,99468.50
2023-08-07T23:13:32.802Z,99465.64
2023-08-07T23:15:59.827Z,99461.86
2023-08-07T23:18:27.192Z,99455.05
2023-08-07T23:20:54.271Z,99460.95
2023-08-07T23:23:21.322Z,99458.41
2023-08-07T23:25:48.376Z,99466.55
2023-08-07T23:28:15.427Z,99455.92
2023-08-07T23:30:42.304Z,99449.11
2023-08-07T23:33:09.323Z,99439.98
2023-08-07T23:35:36.382Z,99458.94
2023-08-07T23:38:04.670Z,99445.52
2023-08-07T23:40:31.716Z,99435.73
2023-08-07T23:42:59.806Z,99434.54
2023-08-07T23:45:26.844Z,99439.61
2023-08-07T23:47:53.934Z,99434.00
2023-08-07T23:50:21.374Z,99430.73
2023-08-07T23:52:48.629Z,99432.20
2023-08-07T23:55:15.990Z,99429.00
2023-08-07T23:57:43.257Z,99429.78
